Latest Coastal Weather Observations for Cape Nelson

IDV60701

Issued at 8:25 pm EST Friday 25 July 2014 (issued every 10 minutes, with the page automatically refreshed every 10 minutes)

About coastal observations | Map of coastal stations | Coastal observations for VIC | Marine services | Other Formats
Station Details ID: 090184 Name: CAPE NELSON LIGHTHOUSE Lat: -38.43 Lon: 141.54 Height: 45.4 m
Data from the previous 72 hours. | See also: Recent months at Cape Nelson
Date/Time
EST
Temp

°C
Wind Pressure Rain
since 9am
mm
Weather Cloud Vis
km
Sea
Height
m
Swell
Dir
 
Speed
knots
Gust
knots
hPa Trend Height
m
Period
s
Dir
25/08:00pm 13.4 W 17 23 1017.6 - 0.8 - - - - - - -
25/07:30pm 13.5 W 18 23 1017.1 - 0.8 - - - - - - -
25/07:00pm 13.7 W 15 21 1016.8 - 0.8 - - - - - - -
25/06:30pm 13.7 W 17 22 1016.3 - 0.8 - - - - - - -
25/06:00pm 13.5 W 18 22 1016.0 - 0.8 - - - - - - -
25/05:30pm 13.5 W 16 21 1015.5 - 0.8 - - - - - - -
25/05:00pm 13.5 W 13 19 1015.2 - 0.8 - - - - - - -
25/04:30pm 13.3 W 15 21 1014.9 - 0.8 - - - - - - -
25/04:15pm 13.1 W 15 25 1014.8 - 0.8 - - - - - - -
25/04:00pm 13.2 W 13 17 1014.7 - 0.8 - - - - - - -
25/03:30pm 12.7 W 15 23 1014.5 - 0.6 - - - - - - -
25/03:10pm 13.7 W 16 26 1014.2 - 0.4 - - - - - - -
25/03:00pm 13.8 W 15 24 1014.0 - 0.4 - - - - - - -
25/02:30pm 14.0 W 16 24 1013.7 - 0.4 - - - - - - -
25/02:18pm 13.9 W 15 25 1013.5 - 0.4 - - - - - - -
25/02:00pm 13.9 W 13 21 1013.6 - 0.4 - - - - - - -
25/01:30pm 13.6 W 17 24 1013.5 - 0.4 - - - - - - -
25/01:00pm 13.7 W 12 19 1013.5 - 0.4 - - - - - - -
25/12:30pm 13.8 W 13 20 1013.6 - 0.4 - - - - - - -
25/12:00pm 13.7 W 15 20 1013.6 - 0.4 - - - - - - -
25/11:30am 13.8 W 14 18 1013.6 - 0.4 - - - - - - -
25/11:00am 12.8 NW 12 20 1013.4 - 0.4 - - - - - - -
25/10:30am 12.4 NW 14 18 1013.1 - 0.4 - - - - - - -
25/10:00am 12.2 NW 14 20 1012.9 - 0.0 - - - - - - -
25/09:30am 12.2 NNW 13 16 1012.5 - 0.0 - - - - - - -
25/09:00am 11.8 NNW 10 14 1012.3 - 6.0 Recent precip. - - - - - -
25/08:30am 11.5 NNW 12 17 1011.9 - 5.6 - - - - - - -
25/08:00am 11.2 NNW 11 16 1011.5 - 5.4 - - - - - - -
25/07:30am 11.1 N 11 15 1011.1 - 5.2 - - - - - - -
25/07:00am 10.8 NNW 11 17 1010.7 - 5.2 - - - - - - -
25/06:30am 10.8 NNW 11 15 1010.3 - 5.2 - - - - - - -
25/06:00am 11.0 N 11 17 1010.0 - 5.2 - - - - - - -
25/05:30am 10.8 N 10 12 1009.7 - 5.2 - - - - - - -
25/05:00am 10.8 N 9 13 1009.5 - 5.2 - - - - - - -
25/04:30am 10.9 N 9 12 1009.4 - 5.2 - - - - - - -
25/04:00am 10.8 N 9 13 1009.3 - 5.2 - - - - - - -
25/03:30am 10.7 N 10 14 1009.3 - 5.2 - - - - - - -
25/03:00am 10.8 N 9 13 1009.4 - 5.2 - - - - - - -
25/02:30am 10.9 N 7 12 1009.3 - 5.2 - - - - - - -
25/02:00am 10.7 NNE 9 12 1009.2 - 5.2 - - - - - - -
25/01:30am 10.8 NNE 9 13 1009.1 - 5.2 - - - - - - -
25/01:00am 10.8 NNE 8 13 1009.1 - 5.0 - - - - - - -
25/12:30am 10.8 NNE 9 12 1009.2 - 5.0 - - - - - - -
25/12:00am 10.9 NNE 11 15 1009.3 - 5.0 Recent precip. - - - - - -
 
Date/Time
EST
Temp

°C
Wind Pressure Rain
since 9am
mm
Weather Cloud Vis
km
Sea
Height
m
Swell
Dir
 
Speed
knots
Gust
knots
hPa Trend Height
m
Period
s
Dir
24/11:30pm 10.9 NNE 9 13 1009.6 - 4.6 - - - - - - -
24/11:00pm 10.9 NE 9 13 1009.6 - 4.0 - - - - - - -
24/10:30pm 11.0 NNE 10 15 1009.6 - 4.0 - - - - - - -
24/10:00pm 10.9 NNE 9 13 1009.6 - 3.8 - - - - - - -
24/09:30pm 11.0 NNE 11 16 1009.6 - 3.8 - - - - - - -
24/09:00pm 11.1 NE 11 17 1009.6 - 3.8 - - - - - - -
24/08:30pm 11.2 NE 10 15 1009.7 - 3.8 - - - - - - -
24/08:00pm 11.3 NE 13 18 1009.6 - 3.8 - - - - - - -
24/07:30pm 11.7 NE 11 16 1009.7 - 3.8 - - - - - - -
24/07:00pm 11.9 ENE 12 16 1009.6 - 3.8 - - - - - - -
24/06:30pm 11.9 ENE 14 22 1009.2 - 3.8 - - - - - - -
24/06:00pm 11.4 ENE 12 17 1009.1 - 3.8 Recent precip. - - - - - -
24/05:30pm 11.7 ENE 15 23 1009.1 - 3.6 - - - - - - -
24/05:00pm 11.9 ENE 17 24 1009.0 - 3.6 - - - - - - -
24/04:30pm 11.8 ENE 16 27 1008.9 - 3.6 - - - - - - -
24/04:27pm 11.8 ENE 16 27 1008.8 - 3.6 - - - - - - -
24/04:00pm 11.8 E 15 21 1008.7 - 3.6 - - - - - - -
24/03:30pm 11.6 E 15 24 1008.7 - 3.6 - - - - - - -
24/03:00pm 11.2 E 14 20 1008.9 - 3.6 - - - - - - -
24/02:30pm 11.0 ENE 14 22 1009.2 - 3.6 - - - - - - -
24/02:00pm 10.6 ENE 15 21 1009.5 - 3.6 - - - - - - -
24/01:30pm 10.7 ENE 15 22 1009.9 - 3.4 - - - - - - -
24/01:00pm 10.7 ENE 15 22 1010.4 - 3.2 - - - - - - -
24/12:30pm 10.8 ENE 15 21 1010.9 - 3.2 - - - - - - -
24/12:00pm 10.6 ENE 16 24 1011.5 - 3.2 Recent precip. - - - - - -
24/11:30am 9.9 ENE 15 22 1011.9 - 3.2 - - - - - - -
24/11:00am 9.9 ENE 15 21 1012.4 - 2.8 - - - - - - -
24/10:30am 9.9 NE 13 18 1012.9 - 1.8 - - - - - - -
24/10:00am 10.0 NE 10 15 1013.0 - 1.0 - - - - - - -
24/09:30am 9.9 NE 12 17 1013.0 - 0.4 - - - - - - -
24/09:00am 9.8 NE 13 17 1013.1 - 4.8 Rain - - - - - -
24/08:30am 9.8 NE 12 16 1013.0 - 4.0 - - - - - - -
24/08:00am 9.7 NE 10 17 1013.0 - 3.2 - - - - - - -
24/07:30am 9.7 NE 11 18 1012.9 - 2.6 - - - - - - -
24/07:00am 9.5 ENE 10 16 1012.9 - 2.0 - - - - - - -
24/06:30am 9.3 NE 10 16 1012.8 - 1.6 - - - - - - -
24/06:00am 9.0 NE 9 14 1012.9 - 1.2 Rain - - - - - -
24/05:30am 8.6 NE 8 12 1013.0 - 0.8 - - - - - - -
24/05:00am 8.3 NNE 7 10 1013.3 - 0.6 - - - - - - -
24/04:30am 8.2 NNE 5 9 1013.7 - 0.4 - - - - - - -
24/04:00am 8.4 NNE 4 6 1013.9 - 0.4 - - - - - - -
24/03:30am 8.5 NE 8 10 1013.6 - 0.4 - - - - - - -
24/03:00am 8.5 NE 8 11 1013.9 - 0.2 - - - - - - -
24/02:30am 8.6 NE 7 10 1014.2 - 0.2 - - - - - - -
24/02:00am 8.7 NE 11 13 1014.3 - 0.2 - - - - - - -
24/01:30am 8.4 NE 11 14 1014.5 - 0.2 - - - - - - -
24/01:00am 9.2 NE 9 13 1014.8 - 0.0 - - - - - - -
24/12:30am 9.3 NE 8 11 1015.2 - 0.0 - - - - - - -
24/12:00am 9.6 ENE 10 13 1015.3 - 0.0 - - - - - - -
 
Date/Time
EST
Temp

°C
Wind Pressure Rain
since 9am
mm
Weather Cloud Vis
km
Sea
Height
m
Swell
Dir
 
Speed
knots
Gust
knots
hPa Trend Height
m
Period
s
Dir
23/11:30pm 9.8 NE 9 11 1015.5 - 0.0 - - - - - - -
23/11:00pm 9.6 NE 9 12 1015.8 - 0.0 - - - - - - -
23/10:30pm 9.2 NE 9 13 1016.0 - 0.0 - - - - - - -
23/10:00pm 9.0 NE 10 13 1016.3 - 0.0 - - - - - - -
23/09:30pm 8.6 NE 9 12 1016.6 - 0.0 - - - - - - -
23/09:00pm 8.7 NE 10 15 1016.9 - 0.0 - - - - - - -
23/08:30pm 8.8 NNE 9 13 1017.1 - 0.0 - - - - - - -
23/08:00pm 8.9 NNE 9 12 1017.1 - 0.0 - - - - - - -
23/07:30pm 9.3 NNE 10 13 1017.0 - 0.0 - - - - - - -
23/07:00pm 9.4 NNE 10 13 1017.1 - 0.0 - - - - - - -
23/06:30pm 9.2 NNE 9 15 1017.2 - 0.0 - - - - - - -
23/06:00pm 9.3 NE 8 12 1017.3 - 0.0 - - - - - - -
23/05:30pm 9.3 NE 7 9 1017.4 - 0.0 - - - - - - -
23/05:00pm 9.6 NNE 7 10 1017.7 - 0.0 - - - - - - -
23/04:30pm 10.0 NNE 7 11 1017.8 - 0.0 - - - - - - -
23/04:00pm 10.6 NNE 7 11 1017.9 - 0.0 - - - - - - -
23/03:30pm 10.9 NNE 5 9 1017.8 - 0.0 - - - - - - -
23/03:00pm 11.0 NNE 6 9 1018.0 - 0.0 - - - - - - -
23/02:30pm 10.8 NNE 7 11 1017.8 - 0.0 - - - - - - -
23/02:00pm 11.6 N 9 13 1018.5 - 0.0 - - - - - - -
23/01:30pm 11.8 NNE 9 15 1018.6 - 0.0 - - - - - - -
23/01:00pm 10.9 NNE 5 9 1019.0 - 0.0 - - - - - - -
23/12:30pm 10.7 NNE 6 11 1019.8 - 0.0 - - - - - - -
23/12:00pm 10.6 NNE 5 7 1020.4 - 0.0 - - - - - - -
23/11:30am 9.8 NNE 4 7 1021.1 - 0.0 - - - - - - -
23/11:00am 9.2 NNE 5 7 1021.5 - 0.0 - - - - - - -
23/10:30am 8.9 NE 5 7 1021.5 - 0.0 - - - - - - -
23/10:00am 8.2 NNE 5 7 1022.0 - 0.0 - - - - - - -
23/09:30am 7.3 N 7 9 1022.3 - 0.0 - - - - - - -
23/09:00am 6.6 NNE 6 7 1022.2 - 0.0 - - - - - - -
23/08:30am 5.8 NNE 6 7 1022.0 - 0.0 - - - - - - -
23/08:00am 5.1 N 8 8 1022.2 - 0.0 - - - - - - -
23/07:30am 4.9 N 7 9 1022.0 - 0.0 - - - - - - -
23/07:00am 4.9 N 8 9 1022.0 - 0.0 - - - - - - -
23/06:30am 4.9 N 8 9 1022.1 - 0.0 - - - - - - -
23/06:00am 5.1 N 9 10 1022.1 - 0.0 - - - - - - -
23/05:30am 5.4 N 8 9 1022.1 - 0.0 - - - - - - -
23/05:00am 5.2 N 9 10 1022.1 - 0.0 - - - - - - -
23/04:30am 5.2 N 9 10 1022.1 - 0.0 - - - - - - -
23/04:00am 5.3 NNE 8 10 1022.0 - 0.0 - - - - - - -
23/03:30am 5.1 NNE 8 9 1022.0 - 0.0 - - - - - - -
23/03:00am 5.4 NNE 8 9 1022.5 - 0.0 - - - - - - -
23/02:30am 5.5 N 8 9 1022.7 - 0.0 - - - - - - -
23/02:00am 5.6 N 8 10 1022.9 - 0.0 - - - - - - -
23/01:30am 5.3 NNE 8 9 1022.8 - 0.0 - - - - - - -
23/01:00am 5.6 NNE 8 9 1023.0 - 0.0 - - - - - - -
23/12:30am 5.6 NNE 8 9 1023.0 - 0.0 - - - - - - -
23/12:00am 5.4 N 8 9 1023.7 - 0.0 - - - - - - -
 
Date/Time
EST
Temp

°C
Wind Pressure Rain
since 9am
mm
Weather Cloud Vis
km
Sea
Height
m
Swell
Dir
 
Speed
knots
Gust
knots
hPa Trend Height
m
Period
s
Dir
22/11:30pm 5.7 NNE 7 9 1024.0 - 0.0 - - - - - - -
22/11:00pm 5.8 NNE 7 8 1024.4 - 0.0 - - - - - - -
22/10:30pm 6.6 N 6 7 1024.3 - 0.0 - - - - - - -
22/10:00pm 7.6 NNE 8 10 1024.3 - 0.0 - - - - - - -
22/09:30pm 8.1 NNE 7 9 1023.8 - 0.0 - - - - - - -
22/09:00pm 8.2 NE 7 8 1023.7 - 0.0 - - - - - - -
22/08:30pm 8.2 NE 7 7 1023.8 - 0.0 - - - - - - -

Other Formats:

Comma delimited format used in spreadsheet applications
http://www.bom.gov.au/fwo/IDV60701/IDV60701.94826.axf

JavaScript Object Notation format (JSON) in row-major order
http://www.bom.gov.au/fwo/IDV60701/IDV60701.94826.json